Time;durP1;ratioP1;P1;durP2;ratioP2;P2;SDS_P1;SDS_P2;PMS_P1;PMS_P2;Temp;Humidity;BMP_temperature;BMP_pressure;BME280_temperature;BME280_humidity;BME280_pressure;Samples;Min_cycle;Max_cycle;Signal;HPM_P1;HPM_P2
2022/01/01 00:02:19;;;;;;;9.23;4.45;;;;;;;13.29;100.00;101113.28;4969244;28;20039;-72
2022/01/01 00:04:45;;;;;;;11.07;4.22;;;;;;;13.34;100.00;101123.78;4958694;28;20408;-73
2022/01/01 00:07:11;;;;;;;14.40;4.32;;;;;;;13.30;100.00;101111.34;4952271;29;20035;-73
2022/01/01 00:09:36;;;;;;;8.80;3.20;;;;;;;13.17;100.00;101118.06;4965998;28;20038;-73
2022/01/01 00:12:02;;;;;;;9.85;3.17;;;;;;;13.20;100.00;101128.19;4974977;28;20050;-72
2022/01/01 00:14:29;;;;;;;8.23;3.28;;;;;;;13.30;100.00;101122.16;4971584;28;20035;-72
2022/01/01 00:16:55;;;;;;;10.68;3.58;;;;;;;13.27;100.00;101141.81;4970379;28;20054;-73
2022/01/01 00:19:20;;;;;;;7.95;3.78;;;;;;;13.36;100.00;101135.03;4971475;28;20027;-73
2022/01/01 00:21:46;;;;;;;6.85;3.22;;;;;;;13.25;100.00;101136.78;4959655;28;20112;-74
2022/01/01 00:24:12;;;;;;;10.50;3.30;;;;;;;13.16;100.00;101138.16;4955405;28;20046;-74
2022/01/01 00:26:37;;;;;;;10.45;3.35;;;;;;;13.17;100.00;101145.13;4956678;28;20047;-71
2022/01/01 00:29:03;;;;;;;13.90;3.60;;;;;;;13.37;100.00;101160.16;4970670;28;20125;-72
2022/01/01 00:31:29;;;;;;;11.90;3.97;;;;;;;13.33;100.00;101154.69;4961001;28;20031;-73
2022/01/01 00:33:55;;;;;;;6.47;3.17;;;;;;;13.24;100.00;101159.53;4968067;28;20035;-73
2022/01/01 00:36:20;;;;;;;10.30;4.15;;;;;;;13.17;100.00;101150.53;4971436;28;20045;-73
2022/01/01 00:38:46;;;;;;;6.15;3.55;;;;;;;13.23;100.00;101159.91;4971240;28;20109;-73
2022/01/01 00:41:11;;;;;;;15.57;4.07;;;;;;;13.16;100.00;101159.78;4973486;28;20431;-73
2022/01/01 00:43:37;;;;;;;7.13;3.35;;;;;;;13.31;100.00;101158.91;4971172;28;20039;-73
2022/01/01 00:46:02;;;;;;;9.75;3.88;;;;;;;13.28;100.00;101151.47;4972782;28;20066;-74
2022/01/01 00:48:28;;;;;;;12.18;5.07;;;;;;;13.22;100.00;101159.13;4971828;28;20038;-74
2022/01/01 00:50:53;;;;;;;8.38;3.67;;;;;;;13.24;100.00;101156.84;4976884;28;20490;-73
2022/01/01 00:53:19;;;;;;;14.63;4.38;;;;;;;13.09;100.00;101160.44;4961519;28;20415;-74
2022/01/01 00:55:44;;;;;;;11.55;3.30;;;;;;;13.24;100.00;101156.84;4970128;28;20044;-74
2022/01/01 00:58:09;;;;;;;8.95;3.55;;;;;;;13.32;100.00;101168.56;4959119;28;20388;-73
2022/01/01 01:00:35;;;;;;;9.95;4.05;;;;;;;13.23;100.00;101166.09;4966971;28;20550;-74
2022/01/01 01:03:10;;;;;;;13.80;3.90;;;;;;;13.28;100.00;101168.50;4960155;28;20039;-73
2022/01/01 01:05:38;;;;;;;8.95;3.05;;;;;;;13.15;100.00;101175.22;4967102;28;20027;-74
2022/01/01 01:08:05;;;;;;;8.10;3.67;;;;;;;13.03;100.00;101172.69;4967804;28;20542;-74
2022/01/01 01:10:30;;;;;;;8.20;2.88;;;;;;;13.09;100.00;101165.06;4965215;28;20384;-73
2022/01/01 01:12:56;;;;;;;12.90;3.80;;;;;;;13.20;100.00;101166.03;4978879;28;20054;-74
2022/01/01 01:15:21;;;;;;;11.82;3.85;;;;;;;13.12;100.00;101178.66;4956662;28;20042;-74
2022/01/01 01:17:48;;;;;;;9.75;3.58;;;;;;;13.29;100.00;101177.41;4968713;28;20114;-74
2022/01/01 01:20:14;;;;;;;11.82;3.63;;;;;;;13.17;100.00;101182.97;4971990;28;20117;-74
2022/01/01 01:22:40;;;;;;;7.20;3.35;;;;;;;13.15;100.00;101185.25;4966074;28;20026;-74
2022/01/01 01:25:07;;;;;;;6.95;3.20;;;;;;;13.20;100.00;101179.56;4970666;28;20500;-73
2022/01/01 01:27:35;;;;;;;7.43;2.70;;;;;;;13.10;100.00;101177.44;4969847;28;20494;-73
2022/01/01 01:30:01;;;;;;;7.47;2.97;;;;;;;13.24;100.00;101180.41;4960101;28;20110;-73
2022/01/01 01:32:26;;;;;;;6.97;3.13;;;;;;;13.25;100.00;101190.09;4970143;28;20510;-73
2022/01/01 01:34:52;;;;;;;9.65;2.70;;;;;;;13.21;100.00;101181.91;4972026;28;20077;-73
2022/01/01 01:37:17;;;;;;;5.30;3.20;;;;;;;13.19;100.00;101181.50;4970361;28;20026;-73
2022/01/01 01:39:43;;;;;;;8.25;3.38;;;;;;;13.20;100.00;101188.44;4957873;28;20038;-74
2022/01/01 01:42:08;;;;;;;10.18;2.78;;;;;;;13.23;100.00;101179.63;4958385;28;20093;-73
2022/01/01 01:44:41;;;;;;;7.32;2.85;;;;;;;13.06;100.00;101177.38;4955364;28;20058;-73
2022/01/01 01:47:14;;;;;;;6.30;2.70;;;;;;;13.22;100.00;101180.75;4957469;28;20042;-73
2022/01/01 01:49:40;;;;;;;7.43;3.20;;;;;;;13.23;100.00;101195.84;4969879;28;20039;-73
2022/01/01 01:52:08;;;;;;;8.18;3.63;;;;;;;13.24;100.00;101189.28;4971916;28;20501;-73
2022/01/01 01:54:33;;;;;;;14.15;2.63;;;;;;;13.20;100.00;101191.16;4967258;28;20039;-73
2022/01/01 01:56:59;;;;;;;9.25;2.90;;;;;;;13.20;100.00;101190.38;4967159;28;20566;-72
2022/01/01 01:59:26;;;;;;;6.07;2.65;;;;;;;13.15;100.00;101190.66;4962969;28;20041;-73
2022/01/01 02:01:52;;;;;;;9.00;2.90;;;;;;;13.33;100.00;101180.97;4962405;28;20027;-73
2022/01/01 02:04:18;;;;;;;8.52;2.60;;;;;;;13.23;100.00;101170.72;4970356;28;20058;-73
2022/01/01 02:06:44;;;;;;;10.52;3.28;;;;;;;13.20;100.00;101174.91;4970730;28;20511;-73
2022/01/01 02:09:11;;;;;;;8.57;3.00;;;;;;;13.27;100.00;101171.56;4969645;28;20129;-73
2022/01/01 02:11:39;;;;;;;7.30;2.90;;;;;;;13.18;100.00;101171.03;4969840;28;20035;-74
2022/01/01 02:14:24;;;;;;;5.97;3.35;;;;;;;13.02;100.00;101168.41;4969744;28;20404;-73
2022/01/01 02:19:28;;;;;;;8.48;3.45;;;;;;;13.08;100.00;101177.03;4971376;28;20056;-73
2022/01/01 02:21:58;;;;;;;9.88;3.35;;;;;;;13.06;100.00;101188.22;4972009;28;20050;-73
2022/01/01 02:24:25;;;;;;;5.68;2.65;;;;;;;13.21;100.00;101183.81;4953945;28;20047;-73
2022/01/01 02:26:51;;;;;;;9.90;3.00;;;;;;;13.01;100.00;101199.25;4981219;28;20093;-73
2022/01/01 02:29:17;;;;;;;7.13;3.05;;;;;;;13.10;100.00;101180.16;4971469;28;20403;-73
2022/01/01 02:31:43;;;;;;;3.72;2.65;;;;;;;12.95;100.00;101203.38;4982046;28;20027;-73
2022/01/01 02:34:10;;;;;;;5.90;2.90;;;;;;;13.10;100.00;101212.59;4969315;28;20026;-73
2022/01/01 02:36:42;;;;;;;7.30;2.95;;;;;;;13.01;100.00;101222.81;4972343;28;20115;-73
2022/01/01 02:39:20;;;;;;;9.10;3.28;;;;;;;13.13;100.00;101230.81;4971587;28;20158;-73
2022/01/01 02:41:53;;;;;;;11.13;2.88;;;;;;;13.21;100.00;101240.63;4961253;28;20034;-73
2022/01/01 02:44:23;;;;;;;12.18;3.38;;;;;;;13.16;100.00;101236.28;4962053;28;20126;-73
2022/01/01 02:46:48;;;;;;;9.02;3.15;;;;;;;13.25;100.00;101233.38;4955117;28;20475;-73
2022/01/01 02:49:14;;;;;;;8.95;3.90;;;;;;;13.23;100.00;101230.22;4952473;28;20031;-73
2022/01/01 02:51:39;;;;;;;8.68;2.95;;;;;;;13.25;100.00;101214.44;4961508;28;20078;-73
2022/01/01 02:54:04;;;;;;;9.90;3.67;;;;;;;13.14;100.00;101213.44;4980285;28;20042;-73
2022/01/01 02:56:30;;;;;;;10.55;3.55;;;;;;;13.13;100.00;101230.81;4976630;28;20038;-73
2022/01/01 02:58:55;;;;;;;10.57;3.15;;;;;;;13.26;100.00;101226.81;4950652;28;20122;-73
2022/01/01 03:01:21;;;;;;;5.63;2.83;;;;;;;13.03;100.00;101228.63;4958797;28;20561;-73
2022/01/01 03:03:47;;;;;;;12.02;3.03;;;;;;;13.14;100.00;101233.16;4966787;28;20077;-73
2022/01/01 03:06:19;;;;;;;11.57;3.80;;;;;;;13.09;100.00;101222.63;4955484;28;20075;-73
2022/01/01 03:08:45;;;;;;;6.05;3.03;;;;;;;13.02;100.00;101227.88;4980545;28;20491;-73
2022/01/01 03:11:11;;;;;;;8.88;3.45;;;;;;;13.00;100.00;101222.03;4970221;28;20035;-73
2022/01/01 03:13:36;;;;;;;12.15;3.38;;;;;;;13.07;100.00;101221.41;4969241;28;20039;-73
2022/01/01 03:16:02;;;;;;;14.02;4.88;;;;;;;13.05;100.00;101229.09;4965785;28;20046;-73
2022/01/01 03:18:27;;;;;;;11.65;3.63;;;;;;;13.08;100.00;101218.38;4978250;28;20109;-73
2022/01/01 03:20:53;;;;;;;10.85;3.30;;;;;;;13.15;100.00;101223.13;4966117;28;20110;-73
2022/01/01 03:23:41;;;;;;;9.73;3.45;;;;;;;13.12;100.00;101218.44;4976364;28;20510;-74
2022/01/01 03:26:10;;;;;;;7.72;3.30;;;;;;;13.12;100.00;101226.56;4970939;28;20053;-72
2022/01/01 03:28:35;;;;;;;7.43;3.17;;;;;;;13.05;100.00;101235.28;4975219;28;20034;-73
2022/01/01 03:31:00;;;;;;;6.55;3.15;;;;;;;13.01;100.00;101226.31;4978848;28;20049;-73
2022/01/01 03:33:26;;;;;;;11.07;3.67;;;;;;;12.96;100.00;101229.31;4956381;28;20035;-73
2022/01/01 03:35:52;;;;;;;9.45;3.83;;;;;;;13.23;100.00;101241.06;4967206;28;20043;-73
2022/01/01 03:38:18;;;;;;;7.05;3.40;;;;;;;13.37;100.00;101247.53;4957127;28;20035;-73
2022/01/01 03:40:44;;;;;;;8.10;3.10;;;;;;;13.20;100.00;101247.19;4972743;28;20063;-73
2022/01/01 03:43:09;;;;;;;17.10;3.60;;;;;;;13.28;100.00;101252.34;4960974;28;20480;-73
2022/01/01 03:45:36;;;;;;;12.43;3.97;;;;;;;13.25;100.00;101249.59;4966031;28;20515;-73
2022/01/01 03:48:04;;;;;;;8.38;3.33;;;;;;;13.18;100.00;101239.41;4952195;28;20030;-73
2022/01/01 03:50:29;;;;;;;10.43;3.17;;;;;;;13.28;100.00;101246.16;4966268;28;20047;-73
2022/01/01 03:52:55;;;;;;;16.77;4.10;;;;;;;13.17;100.00;101240.56;4950048;28;20027;-73
2022/01/01 03:55:23;;;;;;;10.77;3.33;;;;;;;13.08;100.00;101242.72;4951703;28;20047;-73
2022/01/01 03:57:48;;;;;;;8.77;3.33;;;;;;;13.30;100.00;101254.69;4953860;28;20046;-73
2022/01/01 04:00:17;;;;;;;8.45;3.25;;;;;;;13.14;100.00;101241.25;4955067;28;20458;-73
2022/01/01 04:02:42;;;;;;;8.73;3.92;;;;;;;13.06;100.00;101241.50;4978216;28;20113;-73
2022/01/01 04:05:09;;;;;;;9.98;4.05;;;;;;;13.01;100.00;101234.41;4975495;28;20498;-73
2022/01/01 04:07:34;;;;;;;9.75;3.42;;;;;;;13.01;100.00;101234.41;4973006;28;20037;-73
2022/01/01 04:10:00;;;;;;;11.25;3.55;;;;;;;13.16;100.00;101240.94;4963093;28;20478;-73
2022/01/01 04:12:26;;;;;;;14.07;4.18;;;;;;;13.06;100.00;101249.59;4974825;28;20041;-73
2022/01/01 04:14:52;;;;;;;12.75;4.03;;;;;;;13.15;100.00;101233.94;4970166;28;20118;-72
2022/01/01 04:17:18;;;;;;;15.90;3.92;;;;;;;12.97;100.00;101252.47;4984393;28;20027;-73
2022/01/01 04:19:44;;;;;;;7.30;3.05;;;;;;;13.14;100.00;101251.31;4973412;28;20043;-73
2022/01/01 04:22:12;;;;;;;9.02;3.38;;;;;;;12.94;100.00;101249.72;4970376;28;20380;-73
2022/01/01 04:24:41;;;;;;;13.45;5.05;;;;;;;13.04;100.00;101249.97;5000639;23;20101;-66
2022/01/01 04:27:07;;;;;;;9.82;3.90;;;;;;;13.05;100.00;101259.63;4993154;28;20383;-69
2022/01/01 04:29:33;;;;;;;11.75;4.38;;;;;;;13.16;100.00;101267.97;4993949;28;20042;-67
2022/01/01 04:32:02;;;;;;;23.00;4.63;;;;;;;13.11;100.00;101276.34;4988224;28;20101;-68
2022/01/01 04:34:28;;;;;;;19.42;4.43;;;;;;;13.15;100.00;101282.63;4999125;28;20122;-67
2022/01/01 04:37:12;;;;;;;14.80;4.28;;;;;;;13.08;100.00;101285.19;4986045;28;20105;-67
2022/01/01 04:39:38;;;;;;;10.10;3.65;;;;;;;13.03;100.00;101285.44;4992514;28;20090;-68
2022/01/01 04:42:03;;;;;;;8.98;3.75;;;;;;;13.17;100.00;101289.25;4996742;28;20046;-67
2022/01/01 04:44:29;;;;;;;8.82;4.07;;;;;;;12.96;100.00;101291.50;5003752;28;20092;-68
2022/01/01 04:46:54;;;;;;;11.23;3.88;;;;;;;13.14;100.00;101300.75;4990854;28;20038;-67
2022/01/01 04:49:21;;;;;;;22.38;4.38;;;;;;;13.19;100.00;101305.09;4974432;28;20126;-68
2022/01/01 04:51:47;;;;;;;11.27;3.83;;;;;;;13.17;100.00;101291.94;4984567;28;20082;-67
2022/01/01 04:54:15;;;;;;;14.82;4.20;;;;;;;13.01;100.00;101293.09;4998949;28;20050;-67
2022/01/01 04:56:44;;;;;;;14.88;4.95;;;;;;;13.03;100.00;101290.84;4991818;28;20037;-68
2022/01/01 04:59:11;;;;;;;9.95;4.20;;;;;;;13.20;100.00;101291.22;4992961;28;20069;-67
2022/01/01 05:01:37;;;;;;;10.80;4.15;;;;;;;13.12;100.00;101294.16;4993104;28;20057;-67
2022/01/01 05:04:03;;;;;;;12.13;4.45;;;;;;;13.02;100.00;101295.47;4995511;28;20045;-67
2022/01/01 05:06:28;;;;;;;13.77;4.55;;;;;;;13.16;100.00;101295.00;4987491;28;20035;-67
2022/01/01 05:08:54;;;;;;;9.43;3.95;;;;;;;13.25;100.00;101301.78;4987389;28;20566;-70
2022/01/01 05:11:19;;;;;;;16.00;4.15;;;;;;;13.08;100.00;101301.41;4983718;28;20039;-68
2022/01/01 05:13:45;;;;;;;11.07;4.18;;;;;;;13.20;100.00;101309.41;4973544;28;20678;-67
2022/01/01 05:16:15;;;;;;;12.38;4.18;;;;;;;13.24;100.00;101316.41;4981247;28;20029;-69
2022/01/01 05:18:40;;;;;;;12.18;5.28;;;;;;;13.21;100.00;101319.84;5002550;28;20061;-68
2022/01/01 05:21:06;;;;;;;12.70;5.15;;;;;;;13.27;100.00;101321.13;5006797;28;20069;-68
2022/01/01 05:23:32;;;;;;;9.35;4.22;;;;;;;13.28;100.00;101324.59;4987104;28;20029;-67
2022/01/01 05:25:58;;;;;;;9.93;4.50;;;;;;;13.09;100.00;101313.78;4999255;28;20502;-67
2022/01/01 05:28:23;;;;;;;16.55;4.65;;;;;;;13.12;100.00;101329.31;5006638;28;20030;-67
2022/01/01 05:30:49;;;;;;;18.23;5.30;;;;;;;13.30;100.00;101325.81;4991189;28;20180;-67
2022/01/01 05:33:20;;;;;;;13.88;4.68;;;;;;;13.28;100.00;101330.81;4989231;28;20034;-68
2022/01/01 05:35:45;;;;;;;15.75;4.57;;;;;;;13.24;100.00;101323.78;4991710;28;20133;-67
2022/01/01 05:38:11;;;;;;;16.65;5.68;;;;;;;13.22;100.00;101332.22;4990515;28;20113;-67
2022/01/01 05:40:36;;;;;;;13.35;4.53;;;;;;;13.17;100.00;101339.84;4992032;28;20037;-67
2022/01/01 05:43:02;;;;;;;11.90;4.97;;;;;;;13.15;100.00;101331.31;4991269;28;20045;-67
2022/01/01 05:45:28;;;;;;;11.82;5.20;;;;;;;13.09;100.00;101344.31;4989010;28;20038;-68
2022/01/01 05:47:53;;;;;;;14.73;4.47;;;;;;;13.10;100.00;101339.69;4984516;28;20038;-68
2022/01/01 05:50:20;;;;;;;17.58;4.70;;;;;;;13.07;100.00;101340.41;4999824;28;20105;-67
2022/01/01 05:52:48;;;;;;;11.60;4.78;;;;;;;13.16;100.00;101341.00;4991120;28;20462;-68
2022/01/01 05:55:14;;;;;;;19.17;4.65;;;;;;;13.14;100.00;101345.97;4989975;28;20475;-67
2022/01/01 05:57:39;;;;;;;15.93;5.13;;;;;;;13.38;100.00;101349.19;4990575;28;20063;-67
2022/01/01 06:00:09;;;;;;;22.88;6.45;;;;;;;13.16;100.00;101346.41;5000192;28;20410;-67
2022/01/01 06:02:42;;;;;;;13.82;5.20;;;;;;;13.22;100.00;101353.88;4994880;28;20046;-67
2022/01/01 06:05:08;;;;;;;14.05;5.15;;;;;;;13.15;100.00;101342.91;4995736;28;20045;-68
2022/01/01 06:07:33;;;;;;;11.80;4.55;;;;;;;13.12;100.00;101357.16;4993656;28;20072;-69
2022/01/01 06:09:59;;;;;;;10.30;3.80;;;;;;;13.29;100.00;101358.66;5007339;28;20046;-68
2022/01/01 06:12:25;;;;;;;16.13;4.82;;;;;;;13.36;100.00;101354.16;5006146;28;20798;-68
2022/01/01 06:14:51;;;;;;;16.15;5.47;;;;;;;13.20;100.00;101356.13;4990405;28;20034;-67
2022/01/01 06:17:16;;;;;;;15.93;5.57;;;;;;;13.20;100.00;101358.84;4990918;28;20167;-68
2022/01/01 06:19:42;;;;;;;19.27;4.72;;;;;;;13.01;100.00;101358.00;4992253;28;20034;-69
2022/01/01 06:22:10;;;;;;;14.95;4.45;;;;;;;12.98;100.00;101356.81;4985715;28;20045;-68
2022/01/01 06:24:35;;;;;;;10.50;4.03;;;;;;;13.13;100.00;101361.41;5007248;28;20084;-67
2022/01/01 06:27:00;;;;;;;12.32;4.55;;;;;;;13.09;100.00;101363.25;4999833;28;20046;-68
2022/01/01 06:29:26;;;;;;;17.85;5.32;;;;;;;13.28;100.00;101376.00;4991918;28;20097;-68
2022/01/01 06:31:51;;;;;;;16.42;4.55;;;;;;;13.22;100.00;101372.78;4981423;28;20039;-67
2022/01/01 06:34:17;;;;;;;21.48;5.38;;;;;;;13.27;100.00;101366.34;4997618;28;20396;-70
2022/01/01 06:36:42;;;;;;;12.82;3.47;;;;;;;13.16;100.00;101370.75;4994123;28;20030;-67
2022/01/01 06:39:07;;;;;;;14.07;4.22;;;;;;;13.17;100.00;101373.09;4990732;28;20041;-68
2022/01/01 06:41:33;;;;;;;11.05;4.88;;;;;;;13.33;100.00;101381.16;4988555;28;20042;-68
2022/01/01 06:43:58;;;;;;;11.30;4.45;;;;;;;13.05;100.00;101385.94;4990889;28;20067;-69
2022/01/01 06:46:24;;;;;;;14.32;5.32;;;;;;;12.97;100.00;101378.78;4990843;28;20038;-67
2022/01/01 06:48:49;;;;;;;14.30;4.22;;;;;;;13.25;100.00;101392.94;5004534;28;20172;-68
2022/01/01 06:51:15;;;;;;;11.88;4.78;;;;;;;13.08;100.00;101393.34;4987002;28;20053;-68
2022/01/01 06:53:43;;;;;;;14.60;4.43;;;;;;;13.09;100.00;101386.78;4986462;28;20565;-67
2022/01/01 06:56:09;;;;;;;18.20;4.82;;;;;;;13.32;100.00;101395.81;4989392;28;20039;-67
2022/01/01 06:58:36;;;;;;;12.45;4.35;;;;;;;13.25;100.00;101401.06;4990329;28;20734;-68
2022/01/01 07:01:03;;;;;;;11.93;3.97;;;;;;;13.18;100.00;101406.34;4980100;28;20128;-68
2022/01/01 07:03:28;;;;;;;17.13;4.80;;;;;;;13.18;100.00;101392.81;4971655;28;20090;-68
2022/01/01 07:05:54;;;;;;;16.38;5.30;;;;;;;12.91;100.00;101401.84;4989175;28;20051;-68
2022/01/01 07:08:19;;;;;;;11.43;3.33;;;;;;;13.13;100.00;101406.59;4990233;28;20034;-68
2022/01/01 07:10:45;;;;;;;13.27;3.90;;;;;;;13.06;100.00;101401.03;4994009;28;20229;-67
2022/01/01 07:13:12;;;;;;;15.63;4.38;;;;;;;13.18;100.00;101411.75;4997077;28;20038;-67
2022/01/01 07:15:38;;;;;;;14.82;4.53;;;;;;;13.10;100.00;101404.59;4971564;28;20105;-67
2022/01/01 07:18:03;;;;;;;12.00;4.60;;;;;;;13.16;100.00;101405.91;4983197;28;20042;-68
2022/01/01 07:20:29;;;;;;;13.82;4.10;;;;;;;13.00;100.00;101405.13;4987295;28;20030;-67
2022/01/01 07:22:54;;;;;;;12.95;4.32;;;;;;;13.14;100.00;101405.47;4989595;28;20177;-68
2022/01/01 07:25:20;;;;;;;15.43;6.18;;;;;;;13.15;100.00;101404.31;4987693;28;20038;-68
2022/01/01 07:27:46;;;;;;;10.75;3.85;;;;;;;13.06;100.00;101415.34;4991485;28;20526;-68
2022/01/01 07:30:12;;;;;;;12.85;4.30;;;;;;;13.03;100.00;101405.22;4992801;28;20038;-67
2022/01/01 07:32:43;;;;;;;10.45;4.18;;;;;;;13.17;100.00;101420.97;4988323;28;20033;-68
2022/01/01 07:35:10;;;;;;;16.98;4.20;;;;;;;13.16;100.00;101428.31;4990628;28;20121;-67
2022/01/01 07:37:36;;;;;;;13.30;3.63;;;;;;;13.08;100.00;101428.50;4989820;28;20027;-67
2022/01/01 07:40:02;;;;;;;10.63;4.00;;;;;;;13.25;100.00;101436.22;4989730;28;20045;-67
2022/01/01 07:42:28;;;;;;;15.77;3.63;;;;;;;13.24;100.00;101438.16;4989500;28;20088;-69
2022/01/01 07:44:53;;;;;;;11.43;4.20;;;;;;;13.25;100.00;101437.03;4979199;28;20433;-70
2022/01/01 07:47:21;;;;;;;12.98;4.05;;;;;;;13.13;100.00;101430.94;4990533;28;20038;-68
2022/01/01 07:49:47;;;;;;;8.15;3.50;;;;;;;12.97;100.00;101440.97;5003304;28;20467;-68
2022/01/01 07:52:12;;;;;;;11.48;4.65;;;;;;;13.02;100.00;101448.81;4971207;28;20078;-67
2022/01/01 07:54:37;;;;;;;16.52;3.97;;;;;;;13.13;100.00;101442.53;4982796;28;20042;-67
2022/01/01 07:57:03;;;;;;;11.57;4.32;;;;;;;13.17;100.00;101446.13;4989454;28;20023;-68
2022/01/01 07:59:28;;;;;;;11.60;4.60;;;;;;;13.07;100.00;101445.84;4990341;28;20442;-68
2022/01/01 08:01:54;;;;;;;10.63;4.45;;;;;;;13.28;100.00;101455.25;4988920;28;20029;-67
2022/01/01 08:04:20;;;;;;;12.35;4.18;;;;;;;13.16;100.00;101449.19;4978528;28;20066;-67
2022/01/01 08:06:45;;;;;;;15.18;4.95;;;;;;;13.32;100.00;101458.03;4990120;28;20100;-68
2022/01/01 08:09:11;;;;;;;13.93;4.53;;;;;;;13.20;100.00;101461.63;4989603;28;20494;-67
2022/01/01 08:11:40;;;;;;;9.75;4.13;;;;;;;13.06;100.00;101466.72;4987865;28;20454;-67
2022/01/01 08:14:05;;;;;;;14.90;4.40;;;;;;;12.98;100.00;101467.66;4992879;28;20601;-67
2022/01/01 08:16:34;;;;;;;14.25;3.85;;;;;;;13.06;100.00;101479.47;4982874;28;20073;-66
2022/01/01 08:19:00;;;;;;;9.02;3.42;;;;;;;13.16;100.00;101484.34;4993958;28;20084;-69
2022/01/01 08:21:25;;;;;;;14.57;4.38;;;;;;;13.29;100.00;101477.69;5008817;28;20034;-68
2022/01/01 08:23:51;;;;;;;15.02;4.47;;;;;;;13.20;100.00;101488.69;5003278;28;20037;-67
2022/01/01 08:26:16;;;;;;;15.77;4.30;;;;;;;13.15;100.00;101490.88;4989443;28;20043;-68
2022/01/01 08:28:41;;;;;;;15.13;5.20;;;;;;;13.00;100.00;101486.22;5004021;28;20051;-67
2022/01/01 08:31:08;;;;;;;10.93;4.00;;;;;;;13.07;100.00;101489.91;4990784;28;20046;-67
2022/01/01 08:33:33;;;;;;;13.98;4.22;;;;;;;13.13;100.00;101493.13;4988635;28;20022;-67
2022/01/01 08:36:03;;;;;;;17.92;4.80;;;;;;;12.98;100.00;101496.63;4990516;28;20137;-67
2022/01/01 08:38:30;;;;;;;9.88;4.25;;;;;;;13.13;100.00;101496.63;4988700;28;20066;-68
2022/01/01 08:40:56;;;;;;;18.08;5.05;;;;;;;13.20;100.00;101498.72;4980412;28;20047;-69
2022/01/01 08:43:23;;;;;;;21.90;5.03;;;;;;;13.26;100.00;101489.97;4975845;28;20042;-68
2022/01/01 08:45:48;;;;;;;17.10;5.07;;;;;;;13.17;100.00;101492.09;4992987;28;20516;-67
2022/01/01 08:48:13;;;;;;;21.05;4.10;;;;;;;13.25;100.00;101504.66;4996463;28;20037;-67
2022/01/01 08:50:39;;;;;;;14.85;4.65;;;;;;;13.17;100.00;101497.50;4994439;28;20038;-67
2022/01/01 08:53:05;;;;;;;16.95;4.57;;;;;;;13.05;100.00;101510.31;4990529;28;20034;-67
2022/01/01 08:55:30;;;;;;;20.67;4.18;;;;;;;13.21;100.00;101497.59;4987787;28;20698;-67
2022/01/01 08:57:56;;;;;;;14.63;4.40;;;;;;;13.18;100.00;101501.00;4984633;28;20030;-69
2022/01/01 09:00:21;;;;;;;21.50;5.07;;;;;;;13.24;100.00;101515.84;4989733;28;20038;-68
2022/01/01 09:02:52;;;;;;;11.45;4.82;;;;;;;13.25;100.00;101518.19;4998790;28;20026;-68
2022/01/01 09:05:18;;;;;;;19.35;6.20;;;;;;;13.39;100.00;101526.59;4997238;28;20039;-67
2022/01/01 09:07:43;;;;;;;18.98;5.85;;;;;;;13.53;100.00;101524.22;4990820;28;20026;-69
2022/01/01 09:10:09;;;;;;;14.35;4.82;;;;;;;13.51;100.00;101523.03;4993058;28;20414;-68
2022/01/01 09:12:34;;;;;;;13.27;4.28;;;;;;;13.47;100.00;101514.81;4992654;28;20042;-67
2022/01/01 09:15:00;;;;;;;13.93;4.97;;;;;;;13.38;100.00;101516.94;4979233;28;20431;-68
2022/01/01 09:17:25;;;;;;;15.90;5.40;;;;;;;13.31;100.00;101524.91;4982984;28;20505;-68
2022/01/01 09:19:52;;;;;;;18.77;5.55;;;;;;;13.29;100.00;101523.66;4993374;28;20089;-68
2022/01/01 09:22:18;;;;;;;13.93;5.05;;;;;;;13.27;100.00;101523.22;4992119;28;20045;-67
2022/01/01 09:24:44;;;;;;;14.27;4.88;;;;;;;13.15;100.00;101536.84;4987878;28;20042;-68
2022/01/01 09:27:09;;;;;;;17.90;5.20;;;;;;;13.29;100.00;101534.50;5000323;28;20042;-68
2022/01/01 09:29:35;;;;;;;15.07;5.75;;;;;;;13.21;100.00;101530.03;5004362;28;20040;-67
2022/01/01 09:32:00;;;;;;;11.80;4.88;;;;;;;13.34;100.00;101529.59;5009079;28;20045;-68
2022/01/01 09:34:26;;;;;;;16.10;4.78;;;;;;;13.47;100.00;101533.00;4985621;28;20151;-67
2022/01/01 09:36:54;;;;;;;19.27;6.18;;;;;;;13.51;100.00;101537.31;4992694;28;20061;-68
2022/01/01 09:39:20;;;;;;;18.27;5.13;;;;;;;13.46;100.00;101539.53;4990094;28;20053;-67
2022/01/01 09:41:46;;;;;;;20.63;4.88;;;;;;;13.54;100.00;101538.53;4986924;28;20030;-68
2022/01/01 09:44:23;;;;;;;14.27;5.60;;;;;;;13.53;100.00;101550.50;4989397;28;20116;-70
2022/01/01 09:46:50;;;;;;;18.35;5.35;;;;;;;13.43;100.00;101551.06;4991100;28;20077;-68
2022/01/01 09:49:19;;;;;;;18.58;5.65;;;;;;;13.47;100.00;101558.09;5004653;28;20030;-68
2022/01/01 09:51:47;;;;;;;;;;;;;;;13.33;100.00;101552.38;4990982;28;20030;-67
2022/01/01 09:54:13;;;;;;;25.85;7.05;;;;;;;13.30;100.00;101561.19;4975077;28;19914;-69
2022/01/01 09:56:39;;;;;;;18.65;6.45;;;;;;;13.39;100.00;101564.47;5001876;28;20026;-67
2022/01/01 09:59:04;;;;;;;19.80;5.95;;;;;;;13.32;100.00;101569.72;4993683;28;20045;-69
2022/01/01 10:01:30;;;;;;;22.33;6.15;;;;;;;13.20;100.00;101560.94;4993980;28;20029;-69
2022/01/01 10:03:59;;;;;;;28.63;7.18;;;;;;;13.34;100.00;101566.66;5001067;28;20061;-69
2022/01/01 10:06:29;;;;;;;23.10;7.65;;;;;;;13.36;100.00;101570.59;4990875;28;20046;-68
2022/01/01 10:09:00;;;;;;;30.83;8.30;;;;;;;13.36;100.00;101570.59;4987470;28;20041;-69
2022/01/01 10:11:28;;;;;;;28.30;6.88;;;;;;;13.39;100.00;101580.72;4972452;28;20542;-69
2022/01/01 10:13:53;;;;;;;18.50;7.50;;;;;;;13.43;100.00;101580.81;4972839;28;20526;-69
2022/01/01 10:16:19;;;;;;;20.17;7.50;;;;;;;13.52;100.00;101574.09;4969647;28;20046;-69
2022/01/01 10:18:52;;;;;;;23.42;7.97;;;;;;;13.52;100.00;101584.91;4973156;28;20506;-69
2022/01/01 10:21:22;;;;;;;28.77;8.80;;;;;;;13.63;100.00;101589.78;4972011;28;20138;-69
2022/01/01 10:23:52;;;;;;;27.25;9.25;;;;;;;13.57;100.00;101603.56;4971158;28;20097;-69
2022/01/01 10:29:13;;;;;;;29.73;9.55;;;;;;;13.42;100.00;101601.69;4975253;28;20046;-69
2022/01/01 10:31:40;;;;;;;24.48;8.68;;;;;;;13.50;100.00;101608.03;4991320;28;20097;-70
2022/01/01 10:34:11;;;;;;;33.30;10.68;;;;;;;13.48;100.00;101602.19;4991671;28;20034;-69
2022/01/01 10:36:37;;;;;;;31.13;9.48;;;;;;;13.36;100.00;101602.28;4969469;28;20043;-69
2022/01/01 10:39:14;;;;;;;30.23;10.60;;;;;;;13.33;100.00;101598.38;4963326;28;20081;-69
2022/01/01 10:41:46;;;;;;;34.70;10.32;;;;;;;13.61;100.00;101598.25;4968685;28;20046;-69
2022/01/01 10:44:12;;;;;;;32.95;9.85;;;;;;;13.37;100.00;101601.16;4971788;28;20038;-69
2022/01/01 10:46:40;;;;;;;34.47;10.90;;;;;;;13.38;100.00;101605.44;4966432;28;20479;-69
2022/01/01 10:52:21;;;;;;;27.55;9.93;;;;;;;13.33;100.00;101603.78;4969574;28;20047;-69
2022/01/01 10:54:54;;;;;;;35.25;9.98;;;;;;;13.45;100.00;101613.72;4972386;28;20039;-69
2022/01/01 10:57:25;;;;;;;26.70;9.55;;;;;;;13.52;100.00;101614.69;4969862;28;20460;-69
2022/01/01 10:59:51;;;;;;;28.10;9.07;;;;;;;13.58;100.00;101609.78;4964285;28;20039;-69
2022/01/01 11:02:22;;;;;;;29.05;10.13;;;;;;;13.35;100.00;101615.03;4952194;28;20353;-69
2022/01/01 11:04:48;;;;;;;31.73;10.52;;;;;;;13.56;100.00;101596.63;4958095;28;20089;-69
2022/01/01 11:07:24;;;;;;;38.72;10.65;;;;;;;13.72;100.00;101609.34;4971148;28;20039;-69
2022/01/01 11:09:50;;;;;;;35.42;11.30;;;;;;;13.67;100.00;101610.38;4971513;28;20035;-69
2022/01/01 11:12:17;;;;;;;32.65;9.80;;;;;;;13.68;100.00;101601.13;4970714;28;20035;-69
2022/01/01 11:14:43;;;;;;;32.03;9.88;;;;;;;13.64;100.00;101611.09;4970433;28;20034;-69
2022/01/01 11:17:13;;;;;;;30.77;9.68;;;;;;;13.72;100.00;101609.34;4970712;28;20027;-69
2022/01/01 11:19:38;;;;;;;36.67;11.20;;;;;;;13.51;100.00;101610.41;4969975;28;20070;-69